sensor_id;sensor_type;location;lat;lon;timestamp;temperature;humidity
5938;DHT22;2994;51.220;4.412;2023-02-24T00:00:09;9.95;65.96
5938;DHT22;2994;51.220;4.412;2023-02-24T00:02:57;9.92;66.14
5938;DHT22;2994;51.220;4.412;2023-02-24T00:05:23;9.88;66.08
5938;DHT22;2994;51.220;4.412;2023-02-24T00:07:49;9.85;66.33
5938;DHT22;2994;51.220;4.412;2023-02-24T00:10:14;9.85;66.15
5938;DHT22;2994;51.220;4.412;2023-02-24T00:12:44;9.85;65.35
5938;DHT22;2994;51.220;4.412;2023-02-24T00:15:12;9.76;65.62
5938;DHT22;2994;51.220;4.412;2023-02-24T00:17:39;9.76;65.04
5938;DHT22;2994;51.220;4.412;2023-02-24T00:20:05;9.75;64.71
5938;DHT22;2994;51.220;4.412;2023-02-24T00:22:37;9.77;65.32
5938;DHT22;2994;51.220;4.412;2023-02-24T00:25:02;9.74;64.15
5938;DHT22;2994;51.220;4.412;2023-02-24T00:27:28;9.74;63.63
5938;DHT22;2994;51.220;4.412;2023-02-24T00:29:53;9.71;64.15
5938;DHT22;2994;51.220;4.412;2023-02-24T00:32:19;9.70;64.02
5938;DHT22;2994;51.220;4.412;2023-02-24T00:34:44;9.75;64.09
5938;DHT22;2994;51.220;4.412;2023-02-24T00:37:12;9.76;64.05
5938;DHT22;2994;51.220;4.412;2023-02-24T00:39:39;9.77;64.16
5938;DHT22;2994;51.220;4.412;2023-02-24T00:42:06;9.78;64.14
5938;DHT22;2994;51.220;4.412;2023-02-24T00:44:37;9.77;63.31
5938;DHT22;2994;51.220;4.412;2023-02-24T00:47:04;9.78;62.68
5938;DHT22;2994;51.220;4.412;2023-02-24T00:49:31;9.76;63.15
5938;DHT22;2994;51.220;4.412;2023-02-24T00:51:57;9.78;63.38
5938;DHT22;2994;51.220;4.412;2023-02-24T00:54:28;9.71;63.61
5938;DHT22;2994;51.220;4.412;2023-02-24T00:56:55;9.74;63.53
5938;DHT22;2994;51.220;4.412;2023-02-24T00:59:21;9.74;62.51
5938;DHT22;2994;51.220;4.412;2023-02-24T01:01:48;9.76;62.73
5938;DHT22;2994;51.220;4.412;2023-02-24T01:04:15;9.75;62.66
5938;DHT22;2994;51.220;4.412;2023-02-24T01:06:44;9.77;63.05
5938;DHT22;2994;51.220;4.412;2023-02-24T01:09:12;9.76;63.08
5938;DHT22;2994;51.220;4.412;2023-02-24T01:11:38;9.77;62.75
5938;DHT22;2994;51.220;4.412;2023-02-24T01:14:27;9.77;62.20
5938;DHT22;2994;51.220;4.412;2023-02-24T01:16:53;9.78;62.25
5938;DHT22;2994;51.220;4.412;2023-02-24T01:19:22;9.81;62.40
5938;DHT22;2994;51.220;4.412;2023-02-24T01:21:49;9.77;61.57
5938;DHT22;2994;51.220;4.412;2023-02-24T01:24:20;9.78;61.84
5938;DHT22;2994;51.220;4.412;2023-02-24T01:26:46;9.77;62.29
5938;DHT22;2994;51.220;4.412;2023-02-24T01:29:12;9.80;62.70
5938;DHT22;2994;51.220;4.412;2023-02-24T01:31:38;9.81;61.83
5938;DHT22;2994;51.220;4.412;2023-02-24T01:34:09;9.81;62.07
5938;DHT22;2994;51.220;4.412;2023-02-24T01:36:37;9.79;62.62
5938;DHT22;2994;51.220;4.412;2023-02-24T01:39:03;9.81;62.40
5938;DHT22;2994;51.220;4.412;2023-02-24T01:41:36;9.83;62.10
5938;DHT22;2994;51.220;4.412;2023-02-24T01:44:04;9.84;62.70
5938;DHT22;2994;51.220;4.412;2023-02-24T01:46:35;9.85;62.20
5938;DHT22;2994;51.220;4.412;2023-02-24T01:49:05;9.89;61.62
5938;DHT22;2994;51.220;4.412;2023-02-24T01:51:40;9.86;61.86
5938;DHT22;2994;51.220;4.412;2023-02-24T01:54:10;9.86;60.38
5938;DHT22;2994;51.220;4.412;2023-02-24T01:56:36;9.82;59.73
5938;DHT22;2994;51.220;4.412;2023-02-24T01:59:04;9.76;59.33
5938;DHT22;2994;51.220;4.412;2023-02-24T02:01:29;9.71;59.61
5938;DHT22;2994;51.220;4.412;2023-02-24T02:04:14;9.71;60.26
5938;DHT22;2994;51.220;4.412;2023-02-24T02:06:43;9.72;60.11
5938;DHT22;2994;51.220;4.412;2023-02-24T02:09:10;9.71;58.99
5938;DHT22;2994;51.220;4.412;2023-02-24T02:11:38;9.67;59.88
5938;DHT22;2994;51.220;4.412;2023-02-24T02:14:03;9.67;60.09
5938;DHT22;2994;51.220;4.412;2023-02-24T02:16:40;9.70;59.53
5938;DHT22;2994;51.220;4.412;2023-02-24T02:25:10;9.77;59.93
5938;DHT22;2994;51.220;4.412;2023-02-24T02:33:52;9.79;58.28
5938;DHT22;2994;51.220;4.412;2023-02-24T02:39:14;9.79;59.43
5938;DHT22;2994;51.220;4.412;2023-02-24T02:41:55;9.79;59.31
5938;DHT22;2994;51.220;4.412;2023-02-24T02:45:01;9.77;58.00
5938;DHT22;2994;51.220;4.412;2023-02-24T02:47:27;9.79;58.67
5938;DHT22;2994;51.220;4.412;2023-02-24T02:50:04;9.80;58.94
5938;DHT22;2994;51.220;4.412;2023-02-24T02:52:42;9.80;59.35
5938;DHT22;2994;51.220;4.412;2023-02-24T02:55:14;9.82;58.93
5938;DHT22;2994;51.220;4.412;2023-02-24T02:57:46;9.89;57.35
5938;DHT22;2994;51.220;4.412;2023-02-24T03:00:23;9.78;57.50
5938;DHT22;2994;51.220;4.412;2023-02-24T03:02:56;9.78;57.18
5938;DHT22;2994;51.220;4.412;2023-02-24T03:05:28;9.75;57.71
5938;DHT22;2994;51.220;4.412;2023-02-24T03:07:54;9.74;56.97
5938;DHT22;2994;51.220;4.412;2023-02-24T03:10:26;9.78;57.56
5938;DHT22;2994;51.220;4.412;2023-02-24T03:12:57;9.80;58.13
5938;DHT22;2994;51.220;4.412;2023-02-24T03:15:25;9.81;57.77
5938;DHT22;2994;51.220;4.412;2023-02-24T03:18:00;9.80;57.84
5938;DHT22;2994;51.220;4.412;2023-02-24T03:20:33;9.79;57.94
5938;DHT22;2994;51.220;4.412;2023-02-24T03:23:29;9.75;58.78
5938;DHT22;2994;51.220;4.412;2023-02-24T03:26:05;9.72;57.75
5938;DHT22;2994;51.220;4.412;2023-02-24T03:28:47;9.48;58.04
5938;DHT22;2994;51.220;4.412;2023-02-24T03:31:30;9.36;57.87
5938;DHT22;2994;51.220;4.412;2023-02-24T03:34:05;9.45;58.39
5938;DHT22;2994;51.220;4.412;2023-02-24T03:36:34;9.37;59.19
5938;DHT22;2994;51.220;4.412;2023-02-24T03:39:00;9.41;57.80
5938;DHT22;2994;51.220;4.412;2023-02-24T03:41:34;9.50;57.66
5938;DHT22;2994;51.220;4.412;2023-02-24T03:44:04;9.47;57.29
5938;DHT22;2994;51.220;4.412;2023-02-24T03:46:30;9.31;56.98
5938;DHT22;2994;51.220;4.412;2023-02-24T03:49:04;9.36;56.93
5938;DHT22;2994;51.220;4.412;2023-02-24T03:51:30;9.38;57.09
5938;DHT22;2994;51.220;4.412;2023-02-24T03:59:57;9.45;57.24
5938;DHT22;2994;51.220;4.412;2023-02-24T04:02:45;9.31;55.75
5938;DHT22;2994;51.220;4.412;2023-02-24T04:05:15;9.27;56.10
5938;DHT22;2994;51.220;4.412;2023-02-24T04:15:38;9.22;56.99
5938;DHT22;2994;51.220;4.412;2023-02-24T04:18:22;9.03;56.84
5938;DHT22;2994;51.220;4.412;2023-02-24T04:20:49;9.00;55.92
5938;DHT22;2994;51.220;4.412;2023-02-24T04:23:19;9.02;55.42
5938;DHT22;2994;51.220;4.412;2023-02-24T04:25:50;8.74;55.51
5938;DHT22;2994;51.220;4.412;2023-02-24T04:28:16;8.87;55.84
5938;DHT22;2994;51.220;4.412;2023-02-24T04:30:47;8.86;55.87
5938;DHT22;2994;51.220;4.412;2023-02-24T04:33:13;8.72;56.38
5938;DHT22;2994;51.220;4.412;2023-02-24T04:35:39;8.83;56.53
5938;DHT22;2994;51.220;4.412;2023-02-24T04:38:05;8.91;56.52
5938;DHT22;2994;51.220;4.412;2023-02-24T04:40:31;8.85;55.30
5938;DHT22;2994;51.220;4.412;2023-02-24T04:42:56;8.88;55.25
5938;DHT22;2994;51.220;4.412;2023-02-24T04:45:27;8.78;55.73
5938;DHT22;2994;51.220;4.412;2023-02-24T04:47:55;8.71;56.38
5938;DHT22;2994;51.220;4.412;2023-02-24T04:50:26;8.68;56.43
5938;DHT22;2994;51.220;4.412;2023-02-24T04:52:53;8.77;56.14
5938;DHT22;2994;51.220;4.412;2023-02-24T04:55:21;8.76;56.84
5938;DHT22;2994;51.220;4.412;2023-02-24T04:57:48;8.79;56.84
5938;DHT22;2994;51.220;4.412;2023-02-24T05:00:17;8.78;56.98
5938;DHT22;2994;51.220;4.412;2023-02-24T05:02:50;8.76;57.16
5938;DHT22;2994;51.220;4.412;2023-02-24T05:05:17;8.74;57.19
5938;DHT22;2994;51.220;4.412;2023-02-24T05:07:55;8.68;57.76
5938;DHT22;2994;51.220;4.412;2023-02-24T05:10:22;8.59;58.05
5938;DHT22;2994;51.220;4.412;2023-02-24T05:12:56;8.60;57.66
5938;DHT22;2994;51.220;4.412;2023-02-24T05:15:25;8.59;57.81
5938;DHT22;2994;51.220;4.412;2023-02-24T05:18:02;8.65;58.12
5938;DHT22;2994;51.220;4.412;2023-02-24T05:20:41;8.56;57.79
5938;DHT22;2994;51.220;4.412;2023-02-24T05:23:27;8.56;58.00
5938;DHT22;2994;51.220;4.412;2023-02-24T05:25:56;8.53;58.38
5938;DHT22;2994;51.220;4.412;2023-02-24T05:28:23;8.55;57.98
5938;DHT22;2994;51.220;4.412;2023-02-24T05:30:49;8.57;57.57
5938;DHT22;2994;51.220;4.412;2023-02-24T05:33:15;8.48;58.01
5938;DHT22;2994;51.220;4.412;2023-02-24T05:35:48;8.52;58.00
5938;DHT22;2994;51.220;4.412;2023-02-24T05:38:15;8.38;58.47
5938;DHT22;2994;51.220;4.412;2023-02-24T05:40:47;8.39;58.62
5938;DHT22;2994;51.220;4.412;2023-02-24T05:43:14;8.42;59.02
5938;DHT22;2994;51.220;4.412;2023-02-24T05:45:46;8.28;59.11
5938;DHT22;2994;51.220;4.412;2023-02-24T05:48:12;8.32;58.67
5938;DHT22;2994;51.220;4.412;2023-02-24T05:50:41;8.35;58.88
5938;DHT22;2994;51.220;4.412;2023-02-24T05:53:12;8.33;59.61
5938;DHT22;2994;51.220;4.412;2023-02-24T05:55:37;8.41;59.27
5938;DHT22;2994;51.220;4.412;2023-02-24T05:58:03;8.31;59.44
5938;DHT22;2994;51.220;4.412;2023-02-24T06:00:32;8.36;58.97
5938;DHT22;2994;51.220;4.412;2023-02-24T06:03:03;8.33;58.84
5938;DHT22;2994;51.220;4.412;2023-02-24T06:05:33;8.31;59.41
5938;DHT22;2994;51.220;4.412;2023-02-24T06:08:00;8.22;59.65
5938;DHT22;2994;51.220;4.412;2023-02-24T06:10:33;8.28;59.64
5938;DHT22;2994;51.220;4.412;2023-02-24T06:13:00;8.35;59.28
5938;DHT22;2994;51.220;4.412;2023-02-24T06:15:27;8.33;59.43
5938;DHT22;2994;51.220;4.412;2023-02-24T06:17:53;8.33;59.25
5938;DHT22;2994;51.220;4.412;2023-02-24T06:20:24;8.27;59.44
5938;DHT22;2994;51.220;4.412;2023-02-24T06:22:54;8.36;59.09
5938;DHT22;2994;51.220;4.412;2023-02-24T06:25:24;8.35;59.69
5938;DHT22;2994;51.220;4.412;2023-02-24T06:27:54;8.23;59.94
5938;DHT22;2994;51.220;4.412;2023-02-24T06:30:24;8.16;59.66
5938;DHT22;2994;51.220;4.412;2023-02-24T06:32:51;8.17;59.78
5938;DHT22;2994;51.220;4.412;2023-02-24T06:35:17;8.11;59.76
5938;DHT22;2994;51.220;4.412;2023-02-24T06:37:43;8.14;60.26
5938;DHT22;2994;51.220;4.412;2023-02-24T06:40:09;8.14;60.62
5938;DHT22;2994;51.220;4.412;2023-02-24T06:42:46;8.18;60.61
5938;DHT22;2994;51.220;4.412;2023-02-24T06:45:12;8.23;60.73
5938;DHT22;2994;51.220;4.412;2023-02-24T06:47:39;8.27;60.46
5938;DHT22;2994;51.220;4.412;2023-02-24T06:50:09;8.19;60.13
5938;DHT22;2994;51.220;4.412;2023-02-24T06:52:34;8.16;60.49
5938;DHT22;2994;51.220;4.412;2023-02-24T06:55:01;8.20;60.96
5938;DHT22;2994;51.220;4.412;2023-02-24T06:57:29;8.18;60.89
5938;DHT22;2994;51.220;4.412;2023-02-24T06:59:59;8.14;61.12
5938;DHT22;2994;51.220;4.412;2023-02-24T07:02:25;8.22;60.42
5938;DHT22;2994;51.220;4.412;2023-02-24T07:04:57;8.26;60.97
5938;DHT22;2994;51.220;4.412;2023-02-24T07:07:23;8.22;61.33
5938;DHT22;2994;51.220;4.412;2023-02-24T07:09:48;8.28;61.47
5938;DHT22;2994;51.220;4.412;2023-02-24T07:12:13;8.32;61.22
5938;DHT22;2994;51.220;4.412;2023-02-24T07:14:45;8.39;60.35
5938;DHT22;2994;51.220;4.412;2023-02-24T07:17:16;8.45;60.29
5938;DHT22;2994;51.220;4.412;2023-02-24T07:19:43;8.37;60.81
5938;DHT22;2994;51.220;4.412;2023-02-24T07:22:09;8.38;60.19
5938;DHT22;2994;51.220;4.412;2023-02-24T07:24:36;8.42;61.02
5938;DHT22;2994;51.220;4.412;2023-02-24T07:27:14;8.42;60.91
5938;DHT22;2994;51.220;4.412;2023-02-24T07:29:47;8.43;60.14
5938;DHT22;2994;51.220;4.412;2023-02-24T07:32:14;8.35;60.09
5938;DHT22;2994;51.220;4.412;2023-02-24T07:34:39;8.26;61.30
5938;DHT22;2994;51.220;4.412;2023-02-24T07:37:05;8.32;61.09
5938;DHT22;2994;51.220;4.412;2023-02-24T07:39:34;8.46;61.38
5938;DHT22;2994;51.220;4.412;2023-02-24T07:42:00;8.39;61.66
5938;DHT22;2994;51.220;4.412;2023-02-24T07:44:26;8.46;61.48
5938;DHT22;2994;51.220;4.412;2023-02-24T07:46:53;8.52;61.38
5938;DHT22;2994;51.220;4.412;2023-02-24T07:49:21;8.50;61.02
5938;DHT22;2994;51.220;4.412;2023-02-24T07:51:51;8.48;60.86
5938;DHT22;2994;51.220;4.412;2023-02-24T07:54:18;8.44;61.46
5938;DHT22;2994;51.220;4.412;2023-02-24T07:56:45;8.43;61.70
5938;DHT22;2994;51.220;4.412;2023-02-24T07:59:13;8.55;60.76
5938;DHT22;2994;51.220;4.412;2023-02-24T08:01:41;8.58;61.32
5938;DHT22;2994;51.220;4.412;2023-02-24T08:04:15;8.64;61.46
5938;DHT22;2994;51.220;4.412;2023-02-24T08:06:42;8.68;61.10
5938;DHT22;2994;51.220;4.412;2023-02-24T08:09:16;8.56;60.03
5938;DHT22;2994;51.220;4.412;2023-02-24T08:11:55;8.46;60.45
5938;DHT22;2994;51.220;4.412;2023-02-24T08:14:25;8.57;60.41
5938;DHT22;2994;51.220;4.412;2023-02-24T08:16:55;8.58;60.82
5938;DHT22;2994;51.220;4.412;2023-02-24T08:19:29;8.59;60.63
5938;DHT22;2994;51.220;4.412;2023-02-24T08:21:59;8.64;61.35
5938;DHT22;2994;51.220;4.412;2023-02-24T08:24:50;8.64;60.89
5938;DHT22;2994;51.220;4.412;2023-02-24T08:27:22;8.70;60.99
5938;DHT22;2994;51.220;4.412;2023-02-24T08:29:52;8.65;59.73
5938;DHT22;2994;51.220;4.412;2023-02-24T08:35:14;8.42;60.47
5938;DHT22;2994;51.220;4.412;2023-02-24T08:37:42;8.51;60.44
5938;DHT22;2994;51.220;4.412;2023-02-24T08:40:17;8.53;60.83
5938;DHT22;2994;51.220;4.412;2023-02-24T08:43:11;8.72;60.28
5938;DHT22;2994;51.220;4.412;2023-02-24T08:48:34;8.61;60.89
5938;DHT22;2994;51.220;4.412;2023-02-24T08:53:46;8.86;59.54
5938;DHT22;2994;51.220;4.412;2023-02-24T08:56:14;8.80;60.54
5938;DHT22;2994;51.220;4.412;2023-02-24T08:58:48;8.87;60.26
5938;DHT22;2994;51.220;4.412;2023-02-24T09:01:19;8.94;60.63
5938;DHT22;2994;51.220;4.412;2023-02-24T09:03:49;8.91;60.22
5938;DHT22;2994;51.220;4.412;2023-02-24T09:06:23;9.05;60.83
5938;DHT22;2994;51.220;4.412;2023-02-24T09:08:54;9.04;59.35
5938;DHT22;2994;51.220;4.412;2023-02-24T09:11:40;8.97;59.53
5938;DHT22;2994;51.220;4.412;2023-02-24T09:14:13;9.03;59.35
5938;DHT22;2994;51.220;4.412;2023-02-24T09:16:46;9.11;58.91
5938;DHT22;2994;51.220;4.412;2023-02-24T09:22:05;9.01;59.48
5938;DHT22;2994;51.220;4.412;2023-02-24T09:24:42;9.03;59.26
5938;DHT22;2994;51.220;4.412;2023-02-24T09:27:08;9.08;59.46
5938;DHT22;2994;51.220;4.412;2023-02-24T09:29:41;9.17;59.57
5938;DHT22;2994;51.220;4.412;2023-02-24T09:32:14;9.08;59.14
5938;DHT22;2994;51.220;4.412;2023-02-24T09:34:40;9.11;58.65
5938;DHT22;2994;51.220;4.412;2023-02-24T09:37:10;9.19;59.05
5938;DHT22;2994;51.220;4.412;2023-02-24T09:39:50;9.19;58.54
5938;DHT22;2994;51.220;4.412;2023-02-24T09:42:24;8.96;58.36
5938;DHT22;2994;51.220;4.412;2023-02-24T09:45:00;9.14;58.48
5938;DHT22;2994;51.220;4.412;2023-02-24T10:06:38;9.25;59.12
5938;DHT22;2994;51.220;4.412;2023-02-24T10:14:46;9.52;58.58
5938;DHT22;2994;51.220;4.412;2023-02-24T10:17:27;9.52;58.58
5938;DHT22;2994;51.220;4.412;2023-02-24T10:20:16;9.51;58.13
5938;DHT22;2994;51.220;4.412;2023-02-24T10:26:08;9.62;58.91
5938;DHT22;2994;51.220;4.412;2023-02-24T10:31:29;9.33;59.28
5938;DHT22;2994;51.220;4.412;2023-02-24T10:34:00;9.46;59.01
5938;DHT22;2994;51.220;4.412;2023-02-24T10:36:31;9.56;58.70
5938;DHT22;2994;51.220;4.412;2023-02-24T10:39:21;9.61;58.98
5938;DHT22;2994;51.220;4.412;2023-02-24T10:41:56;9.70;58.58
5938;DHT22;2994;51.220;4.412;2023-02-24T10:44:24;9.60;59.19
5938;DHT22;2994;51.220;4.412;2023-02-24T10:47:01;9.57;60.00
5938;DHT22;2994;51.220;4.412;2023-02-24T10:49:44;9.57;58.57
5938;DHT22;2994;51.220;4.412;2023-02-24T10:52:31;9.61;59.14
5938;DHT22;2994;51.220;4.412;2023-02-24T10:55:04;9.72;59.12
5938;DHT22;2994;51.220;4.412;2023-02-24T10:57:48;9.51;59.90
5938;DHT22;2994;51.220;4.412;2023-02-24T11:00:20;9.46;59.33
5938;DHT22;2994;51.220;4.412;2023-02-24T11:03:08;9.29;60.82
5938;DHT22;2994;51.220;4.412;2023-02-24T11:05:45;9.27;60.57
5938;DHT22;2994;51.220;4.412;2023-02-24T11:08:42;9.05;61.15
5938;DHT22;2994;51.220;4.412;2023-02-24T11:11:22;9.12;61.36
5938;DHT22;2994;51.220;4.412;2023-02-24T11:13:59;9.19;61.24
5938;DHT22;2994;51.220;4.412;2023-02-24T11:16:49;9.34;61.55
5938;DHT22;2994;51.220;4.412;2023-02-24T11:19:44;9.10;61.64
5938;DHT22;2994;51.220;4.412;2023-02-24T11:22:15;9.14;62.34
5938;DHT22;2994;51.220;4.412;2023-02-24T11:24:43;9.16;63.17
5938;DHT22;2994;51.220;4.412;2023-02-24T11:27:09;9.17;62.92
5938;DHT22;2994;51.220;4.412;2023-02-24T11:32:32;9.12;62.98
5938;DHT22;2994;51.220;4.412;2023-02-24T11:38:26;9.29;62.70
5938;DHT22;2994;51.220;4.412;2023-02-24T11:41:02;9.39;62.66
5938;DHT22;2994;51.220;4.412;2023-02-24T11:43:31;9.22;62.56
5938;DHT22;2994;51.220;4.412;2023-02-24T11:46:11;9.32;62.47
5938;DHT22;2994;51.220;4.412;2023-02-24T11:48:46;9.29;63.08
5938;DHT22;2994;51.220;4.412;2023-02-24T11:51:19;9.49;62.68
5938;DHT22;2994;51.220;4.412;2023-02-24T11:53:50;9.42;62.39
5938;DHT22;2994;51.220;4.412;2023-02-24T11:56:44;9.60;62.17
5938;DHT22;2994;51.220;4.412;2023-02-24T11:59:36;9.60;62.13
5938;DHT22;2994;51.220;4.412;2023-02-24T12:02:26;9.63;61.81
5938;DHT22;2994;51.220;4.412;2023-02-24T12:05:15;9.62;62.38
5938;DHT22;2994;51.220;4.412;2023-02-24T12:07:55;9.57;62.77
5938;DHT22;2994;51.220;4.412;2023-02-24T12:10:29;9.54;63.07
5938;DHT22;2994;51.220;4.412;2023-02-24T12:16:04;9.49;63.83
5938;DHT22;2994;51.220;4.412;2023-02-24T12:18:33;9.67;63.27
5938;DHT22;2994;51.220;4.412;2023-02-24T12:21:25;9.63;63.92
5938;DHT22;2994;51.220;4.412;2023-02-24T12:23:55;9.68;63.97
5938;DHT22;2994;51.220;4.412;2023-02-24T12:43:05;9.64;67.94
5938;DHT22;2994;51.220;4.412;2023-02-24T12:45:39;9.57;69.06
5938;DHT22;2994;51.220;4.412;2023-02-24T12:56:20;9.26;73.97
5938;DHT22;2994;51.220;4.412;2023-02-24T12:58:50;9.31;74.62
5938;DHT22;2994;51.220;4.412;2023-02-24T13:04:59;9.22;76.74
5938;DHT22;2994;51.220;4.412;2023-02-24T13:15:28;9.09;78.75
5938;DHT22;2994;51.220;4.412;2023-02-24T13:17:57;9.00;79.17
5938;DHT22;2994;51.220;4.412;2023-02-24T13:20:36;9.15;78.93
5938;DHT22;2994;51.220;4.412;2023-02-24T13:23:19;9.14;79.53
5938;DHT22;2994;51.220;4.412;2023-02-24T13:25:53;9.11;79.51
5938;DHT22;2994;51.220;4.412;2023-02-24T13:30:57;9.15;79.95
5938;DHT22;2994;51.220;4.412;2023-02-24T13:33:29;9.11;80.24
5938;DHT22;2994;51.220;4.412;2023-02-24T13:36:09;9.09;80.55
5938;DHT22;2994;51.220;4.412;2023-02-24T13:38:39;9.32;79.56
5938;DHT22;2994;51.220;4.412;2023-02-24T13:44:01;8.94;81.50
5938;DHT22;2994;51.220;4.412;2023-02-24T13:46:35;9.10;80.57
5938;DHT22;2994;51.220;4.412;2023-02-24T13:49:33;8.95;82.04
5938;DHT22;2994;51.220;4.412;2023-02-24T13:55:17;8.97;81.92
5938;DHT22;2994;51.220;4.412;2023-02-24T13:58:08;8.93;82.22
5938;DHT22;2994;51.220;4.412;2023-02-24T14:00:51;9.06;81.36
5938;DHT22;2994;51.220;4.412;2023-02-24T14:03:23;8.98;81.78
5938;DHT22;2994;51.220;4.412;2023-02-24T14:05:50;9.02;81.93
5938;DHT22;2994;51.220;4.412;2023-02-24T14:08:40;9.11;82.10
5938;DHT22;2994;51.220;4.412;2023-02-24T14:11:10;9.06;82.26
5938;DHT22;2994;51.220;4.412;2023-02-24T14:13:37;9.11;81.91
5938;DHT22;2994;51.220;4.412;2023-02-24T14:16:07;9.21;81.72
5938;DHT22;2994;51.220;4.412;2023-02-24T14:18:33;9.24;81.68
5938;DHT22;2994;51.220;4.412;2023-02-24T14:21:01;9.32;81.37
5938;DHT22;2994;51.220;4.412;2023-02-24T14:23:32;9.19;81.93
5938;DHT22;2994;51.220;4.412;2023-02-24T14:26:06;9.18;81.88
5938;DHT22;2994;51.220;4.412;2023-02-24T14:28:35;9.34;81.41
5938;DHT22;2994;51.220;4.412;2023-02-24T14:31:14;9.48;80.72
5938;DHT22;2994;51.220;4.412;2023-02-24T14:33:42;9.27;81.39
5938;DHT22;2994;51.220;4.412;2023-02-24T14:36:22;9.41;81.37
5938;DHT22;2994;51.220;4.412;2023-02-24T14:39:41;9.45;81.27
5938;DHT22;2994;51.220;4.412;2023-02-24T14:41:48;9.47;80.85
5938;DHT22;2994;51.220;4.412;2023-02-24T14:44:22;9.21;81.82
5938;DHT22;2994;51.220;4.412;2023-02-24T14:46:54;9.46;81.11
5938;DHT22;2994;51.220;4.412;2023-02-24T14:49:23;9.40;81.22
5938;DHT22;2994;51.220;4.412;2023-02-24T14:51:54;9.39;81.76
5938;DHT22;2994;51.220;4.412;2023-02-24T14:54:44;9.61;81.03
5938;DHT22;2994;51.220;4.412;2023-02-24T14:57:13;9.67;80.66
5938;DHT22;2994;51.220;4.412;2023-02-24T14:59:41;9.47;81.39
5938;DHT22;2994;51.220;4.412;2023-02-24T15:02:14;9.69;80.61
5938;DHT22;2994;51.220;4.412;2023-02-24T15:04:44;9.86;80.01
5938;DHT22;2994;51.220;4.412;2023-02-24T15:07:17;10.05;79.55
5938;DHT22;2994;51.220;4.412;2023-02-24T15:09:44;10.22;78.81
5938;DHT22;2994;51.220;4.412;2023-02-24T15:12:20;10.25;78.45
5938;DHT22;2994;51.220;4.412;2023-02-24T15:14:52;10.44;77.58
5938;DHT22;2994;51.220;4.412;2023-02-24T15:17:22;10.39;77.24
5938;DHT22;2994;51.220;4.412;2023-02-24T15:19:48;10.22;77.63
5938;DHT22;2994;51.220;4.412;2023-02-24T15:22:30;10.43;76.75
5938;DHT22;2994;51.220;4.412;2023-02-24T15:25:20;10.35;76.66
5938;DHT22;2994;51.220;4.412;2023-02-24T15:28:24;10.34;76.63
5938;DHT22;2994;51.220;4.412;2023-02-24T15:31:15;10.51;76.15
5938;DHT22;2994;51.220;4.412;2023-02-24T15:33:45;10.59;76.17
5938;DHT22;2994;51.220;4.412;2023-02-24T15:36:20;10.56;76.07
5938;DHT22;2994;51.220;4.412;2023-02-24T15:38:54;10.67;75.26
5938;DHT22;2994;51.220;4.412;2023-02-24T15:41:21;10.64;75.10
5938;DHT22;2994;51.220;4.412;2023-02-24T15:43:49;10.60;75.01
5938;DHT22;2994;51.220;4.412;2023-02-24T15:46:34;10.33;74.42
5938;DHT22;2994;51.220;4.412;2023-02-24T15:49:00;10.31;74.96
5938;DHT22;2994;51.220;4.412;2023-02-24T15:51:34;10.29;73.60
5938;DHT22;2994;51.220;4.412;2023-02-24T15:54:02;10.52;72.83
5938;DHT22;2994;51.220;4.412;2023-02-24T15:56:31;10.52;71.96
5938;DHT22;2994;51.220;4.412;2023-02-24T15:58:57;10.43;72.69
5938;DHT22;2994;51.220;4.412;2023-02-24T16:01:27;10.53;71.10
5938;DHT22;2994;51.220;4.412;2023-02-24T16:03:52;10.40;71.28
5938;DHT22;2994;51.220;4.412;2023-02-24T16:06:19;10.68;70.52
5938;DHT22;2994;51.220;4.412;2023-02-24T16:08:46;10.70;69.97
5938;DHT22;2994;51.220;4.412;2023-02-24T16:11:18;10.43;69.83
5938;DHT22;2994;51.220;4.412;2023-02-24T16:13:53;10.45;70.15
5938;DHT22;2994;51.220;4.412;2023-02-24T16:16:20;10.67;69.56
5938;DHT22;2994;51.220;4.412;2023-02-24T16:18:46;10.66;68.93
5938;DHT22;2994;51.220;4.412;2023-02-24T16:21:11;10.58;69.29
5938;DHT22;2994;51.220;4.412;2023-02-24T16:23:38;10.52;67.75
5938;DHT22;2994;51.220;4.412;2023-02-24T16:26:06;10.65;68.30
5938;DHT22;2994;51.220;4.412;2023-02-24T16:28:32;10.55;67.23
5938;DHT22;2994;51.220;4.412;2023-02-24T16:30:58;10.59;67.78
5938;DHT22;2994;51.220;4.412;2023-02-24T16:33:23;10.53;66.52
5938;DHT22;2994;51.220;4.412;2023-02-24T16:35:50;10.52;65.37
5938;DHT22;2994;51.220;4.412;2023-02-24T16:38:19;10.52;66.09
5938;DHT22;2994;51.220;4.412;2023-02-24T16:40:47;10.35;66.59
5938;DHT22;2994;51.220;4.412;2023-02-24T16:43:13;10.36;66.84
5938;DHT22;2994;51.220;4.412;2023-02-24T16:45:40;10.40;66.47
5938;DHT22;2994;51.220;4.412;2023-02-24T16:48:19;10.39;66.76
5938;DHT22;2994;51.220;4.412;2023-02-24T16:50:46;10.51;66.94
5938;DHT22;2994;51.220;4.412;2023-02-24T16:53:17;10.46;67.71
5938;DHT22;2994;51.220;4.412;2023-02-24T16:55:43;10.54;66.18
5938;DHT22;2994;51.220;4.412;2023-02-24T16:58:10;10.44;62.98
5938;DHT22;2994;51.220;4.412;2023-02-24T17:00:37;10.48;63.99
5938;DHT22;2994;51.220;4.412;2023-02-24T17:03:10;10.12;63.41
5938;DHT22;2994;51.220;4.412;2023-02-24T17:05:37;10.18;64.08
5938;DHT22;2994;51.220;4.412;2023-02-24T17:08:02;9.96;64.66
5938;DHT22;2994;51.220;4.412;2023-02-24T17:10:28;10.05;65.27
5938;DHT22;2994;51.220;4.412;2023-02-24T17:12:53;10.18;65.21
5938;DHT22;2994;51.220;4.412;2023-02-24T17:15:21;10.18;65.95
5938;DHT22;2994;51.220;4.412;2023-02-24T17:17:48;10.24;65.60
5938;DHT22;2994;51.220;4.412;2023-02-24T17:20:15;10.27;65.21
5938;DHT22;2994;51.220;4.412;2023-02-24T17:22:42;10.27;65.09
5938;DHT22;2994;51.220;4.412;2023-02-24T17:25:14;10.31;65.60
5938;DHT22;2994;51.220;4.412;2023-02-24T17:27:39;10.20;66.06
5938;DHT22;2994;51.220;4.412;2023-02-24T17:30:05;10.27;66.43
5938;DHT22;2994;51.220;4.412;2023-02-24T17:32:31;10.28;66.59
5938;DHT22;2994;51.220;4.412;2023-02-24T17:34:56;10.25;66.47
5938;DHT22;2994;51.220;4.412;2023-02-24T17:37:22;10.26;66.35
5938;DHT22;2994;51.220;4.412;2023-02-24T17:39:47;10.28;66.45
5938;DHT22;2994;51.220;4.412;2023-02-24T17:42:13;10.30;66.88
5938;DHT22;2994;51.220;4.412;2023-02-24T17:44:38;10.35;67.27
5938;DHT22;2994;51.220;4.412;2023-02-24T17:47:04;10.39;67.25
5938;DHT22;2994;51.220;4.412;2023-02-24T17:49:31;10.42;67.01
5938;DHT22;2994;51.220;4.412;2023-02-24T17:51:57;10.39;67.99
5938;DHT22;2994;51.220;4.412;2023-02-24T17:54:22;10.33;69.01
5938;DHT22;2994;51.220;4.412;2023-02-24T17:56:48;10.43;68.30
5938;DHT22;2994;51.220;4.412;2023-02-24T17:59:13;10.45;67.65
5938;DHT22;2994;51.220;4.412;2023-02-24T18:01:39;10.41;67.36
5938;DHT22;2994;51.220;4.412;2023-02-24T18:04:04;10.38;66.23
5938;DHT22;2994;51.220;4.412;2023-02-24T18:06:29;10.31;65.27
5938;DHT22;2994;51.220;4.412;2023-02-24T18:08:55;10.26;65.51
5938;DHT22;2994;51.220;4.412;2023-02-24T18:11:20;10.28;65.43
5938;DHT22;2994;51.220;4.412;2023-02-24T18:13:46;10.27;65.09
5938;DHT22;2994;51.220;4.412;2023-02-24T18:16:15;10.11;65.59
5938;DHT22;2994;51.220;4.412;2023-02-24T18:18:41;10.12;65.82
5938;DHT22;2994;51.220;4.412;2023-02-24T18:21:06;10.13;66.17
5938;DHT22;2994;51.220;4.412;2023-02-24T18:23:33;10.18;66.53
5938;DHT22;2994;51.220;4.412;2023-02-24T18:26:04;10.14;66.92
5938;DHT22;2994;51.220;4.412;2023-02-24T18:28:30;10.15;66.81
5938;DHT22;2994;51.220;4.412;2023-02-24T18:30:56;10.19;67.02
5938;DHT22;2994;51.220;4.412;2023-02-24T18:33:22;10.13;66.81
5938;DHT22;2994;51.220;4.412;2023-02-24T18:35:58;10.14;66.78
5938;DHT22;2994;51.220;4.412;2023-02-24T18:38:24;9.98;66.59
5938;DHT22;2994;51.220;4.412;2023-02-24T18:41:00;9.94;67.39
5938;DHT22;2994;51.220;4.412;2023-02-24T18:43:27;10.08;66.94
5938;DHT22;2994;51.220;4.412;2023-02-24T18:46:01;10.11;67.68